Time;durP1;ratioP1;P1;durP2;ratioP2;P2;SDS_P1;SDS_P2;PMS_P1;PMS_P2;Temp;Humidity;BMP_temperature;BMP_pressure;BME280_temperature;BME280_humidity;BME280_pressure;Samples;Min_cycle;Max_cycle;Signal;HPM_P1;HPM_P2
2022/01/03 00:01:19;;;;;;;6.23;4.53;;;;;;;0.75;85.13;98863.89;1720767;83;21602;-75
2022/01/03 00:03:45;;;;;;;7.37;4.77;;;;;;;0.76;84.76;98858.41;1725115;82;21024;-72
2022/01/03 00:06:12;;;;;;;5.63;5.03;;;;;;;0.76;84.73;98830.62;1720636;83;21313;-74
2022/01/03 00:08:44;;;;;;;6.73;5.47;;;;;;;0.81;85.00;98830.81;1724996;83;21104;-76
2022/01/03 00:11:13;;;;;;;5.63;5.00;;;;;;;0.86;85.13;98823.57;1720515;83;20926;-75
2022/01/03 00:13:43;;;;;;;6.20;5.20;;;;;;;0.88;85.36;98818.86;1720908;83;20941;-78
2022/01/03 00:16:10;;;;;;;6.53;4.33;;;;;;;0.87;85.58;98802.16;1720642;83;21054;-79
2022/01/03 00:18:39;;;;;;;10.97;6.23;;;;;;;0.88;86.19;98803.80;1724975;83;21209;-78
2022/01/03 00:21:16;;;;;;;9.93;5.17;;;;;;;0.89;86.42;98808.58;1724985;82;20909;-79
2022/01/03 00:23:51;;;;;;;5.10;4.60;;;;;;;0.91;87.09;98781.41;1725162;82;21017;-77
2022/01/03 00:26:25;;;;;;;5.67;4.63;;;;;;;0.92;87.36;98779.03;1725414;83;21093;-84
2022/01/03 00:29:07;;;;;;;5.23;4.60;;;;;;;0.95;88.05;98755.33;1725534;83;21082;-81
2022/01/03 00:31:39;;;;;;;8.13;5.10;;;;;;;0.92;88.60;98752.57;1717750;83;21181;-78
2022/01/03 00:34:08;;;;;;;6.75;5.30;;;;;;;0.93;89.21;98728.23;1724711;82;21573;-81
2022/01/03 00:36:36;;;;;;;8.83;5.17;;;;;;;0.95;89.93;98754.00;1725296;83;21514;-77
2022/01/03 00:39:04;;;;;;;7.37;6.07;;;;;;;0.96;90.39;98718.03;1725443;83;21047;-82
2022/01/03 00:41:32;;;;;;;7.67;5.30;;;;;;;0.99;90.46;98740.12;1725344;82;22210;-83
2022/01/03 00:44:00;;;;;;;9.13;6.13;;;;;;;1.03;91.14;98761.69;1725523;82;21213;-79
2022/01/03 00:46:30;;;;;;;6.00;4.37;;;;;;;1.00;91.95;98709.99;1724995;82;21682;-82
2022/01/03 00:49:00;;;;;;;6.77;5.80;;;;;;;1.02;92.33;98681.45;1724806;82;20995;-82
2022/01/03 00:51:26;;;;;;;9.03;6.07;;;;;;;1.03;92.97;98708.23;1702198;83;21083;-80
2022/01/03 00:53:53;;;;;;;9.80;6.73;;;;;;;1.06;93.38;98637.64;1721311;83;21068;-79
2022/01/03 00:56:43;;;;;;;8.00;6.00;;;;;;;1.08;93.72;98700.98;1701577;83;20990;-83
2022/01/03 00:59:15;;;;;;;7.37;6.67;;;;;;;1.10;94.23;98662.69;1722509;83;20945;-78
2022/01/03 01:01:48;;;;;;;8.47;6.40;;;;;;;1.15;94.58;98660.18;1725252;83;20988;-82
2022/01/03 01:04:16;;;;;;;8.15;6.22;;;;;;;1.19;95.13;98627.48;1725503;83;21481;-82
2022/01/03 01:06:45;;;;;;;8.57;7.43;;;;;;;1.19;95.28;98636.24;1725579;83;21624;-80
2022/01/03 01:09:14;;;;;;;8.90;6.97;;;;;;;1.21;95.71;98612.98;1756596;81;21045;-84
2022/01/03 01:11:43;;;;;;;10.00;8.10;;;;;;;1.27;96.03;98606.02;1725076;82;20988;-83
2022/01/03 01:14:14;;;;;;;11.40;8.20;;;;;;;1.30;96.49;98593.66;1725340;82;21013;-82
2022/01/03 01:16:42;;;;;;;10.37;8.00;;;;;;;1.30;96.91;98601.09;1720927;83;21561;-85
2022/01/03 01:19:10;;;;;;;13.33;8.77;;;;;;;1.33;97.40;98601.70;1721209;83;21048;-86
2022/01/03 01:21:38;;;;;;;14.50;8.97;;;;;;;1.37;98.02;98600.23;1700641;83;21120;-81
2022/01/03 01:24:05;;;;;;;14.07;8.60;;;;;;;1.40;98.35;98599.28;1720906;83;21098;-76
2022/01/03 01:29:17;;;;;;;10.40;8.97;;;;;;;1.47;99.21;98570.09;1720742;83;21349;-76
2022/01/03 01:31:48;;;;;;;14.80;10.53;;;;;;;1.50;99.58;98565.16;1720805;83;21060;-76
2022/01/03 01:34:22;;;;;;;11.93;8.97;;;;;;;1.51;99.84;98556.19;1720762;82;21916;-79
2022/01/03 01:36:52;;;;;;;10.25;9.20;;;;;;;1.54;100.00;98543.00;1697967;83;21075;-79
2022/01/03 01:39:22;;;;;;;10.03;7.87;;;;;;;1.55;100.00;98553.90;1697961;83;21101;-79
2022/01/03 01:41:49;;;;;;;9.17;8.00;;;;;;;1.58;100.00;98559.56;1726457;83;21063;-79
2022/01/03 01:44:15;;;;;;;11.53;8.33;;;;;;;1.59;100.00;98544.48;1720868;83;20998;-88
2022/01/03 01:46:49;;;;;;;9.80;6.33;;;;;;;1.60;100.00;98532.85;1668242;85;21803;-90
2022/01/03 01:49:19;;;;;;;9.30;7.45;;;;;;;1.64;100.00;98532.70;1711952;83;20967;-89
2022/01/03 01:51:56;;;;;;;11.40;7.17;;;;;;;1.67;100.00;98526.47;1703013;83;20991;-86
2022/01/03 01:54:24;;;;;;;10.55;7.55;;;;;;;1.71;100.00;98512.25;1672804;83;21031;-91
2022/01/03 01:57:11;;;;;;;13.20;8.93;;;;;;;1.75;100.00;98512.91;1720751;83;21025;-93
2022/01/03 02:00:06;;;;;;;9.95;8.68;;;;;;;1.80;100.00;98512.24;1698672;82;21093;-92
2022/01/03 02:02:46;;;;;;;12.80;9.50;;;;;;;1.81;100.00;98498.48;1720410;83;21090;-92
2022/01/03 02:05:39;;;;;;;11.35;8.68;;;;;;;1.86;100.00;98507.90;1721291;83;21031;-94
2022/01/03 02:08:27;;;;;;;11.50;9.73;;;;;;;1.91;100.00;98497.44;1715560;83;21063;-95
2022/01/03 02:11:16;;;;;;;14.60;11.08;;;;;;;1.97;100.00;98478.77;1724586;83;20934;-85
2022/01/03 02:13:43;;;;;;;17.10;12.47;;;;;;;2.06;100.00;98471.34;1694536;83;21066;-89
2022/01/03 02:16:11;;;;;;;16.62;11.93;;;;;;;2.12;100.00;98458.48;1693366;83;21239;-72
2022/01/03 02:18:40;;;;;;;15.95;11.63;;;;;;;2.16;100.00;98445.06;1720113;83;21026;-75
2022/01/03 02:21:08;;;;;;;14.95;10.58;;;;;;;2.21;100.00;98430.61;1720927;83;21038;-74
2022/01/03 02:23:35;;;;;;;23.18;12.63;;;;;;;2.28;100.00;98437.96;1720793;83;21073;-76
2022/01/03 02:26:02;;;;;;;17.15;11.28;;;;;;;2.35;100.00;98432.56;1720942;83;21143;-80
2022/01/03 02:28:30;;;;;;;14.55;10.35;;;;;;;2.41;100.00;98431.63;1720546;83;21511;-78
2022/01/03 02:30:57;;;;;;;12.15;9.10;;;;;;;2.45;100.00;98420.85;1698053;83;21010;-76
2022/01/03 02:33:23;;;;;;;15.78;11.30;;;;;;;2.49;100.00;98422.84;1720758;82;21051;-79
2022/01/03 02:35:50;;;;;;;12.35;9.13;;;;;;;2.53;100.00;98431.96;1726841;83;20985;-86
2022/01/03 02:38:17;;;;;;;10.98;8.15;;;;;;;2.57;100.00;98425.16;1720393;83;21150;-78
2022/01/03 02:40:43;;;;;;;16.23;9.25;;;;;;;2.61;100.00;98413.03;1696487;84;21003;-79
2022/01/03 02:43:10;;;;;;;11.55;8.70;;;;;;;2.67;100.00;98406.52;1699173;83;21605;-84
2022/01/03 02:45:38;;;;;;;13.30;8.98;;;;;;;2.70;100.00;98405.53;1724304;83;21004;-86
2022/01/03 02:48:07;;;;;;;19.98;9.30;;;;;;;2.72;100.00;98412.76;1712162;83;21059;-79
2022/01/03 02:50:35;;;;;;;11.20;8.50;;;;;;;2.75;100.00;98396.36;1694712;84;21719;-79
2022/01/03 02:53:02;;;;;;;12.13;7.72;;;;;;;2.79;100.00;98402.81;1726581;83;21034;-82
2022/01/03 02:55:28;;;;;;;11.70;9.03;;;;;;;2.82;100.00;98372.36;1720733;83;21073;-79
2022/01/03 02:57:58;;;;;;;10.72;7.90;;;;;;;2.86;100.00;98345.11;1670540;85;21024;-82
2022/01/03 03:00:31;;;;;;;10.55;7.97;;;;;;;2.91;100.00;98345.73;1696594;84;21005;-80
2022/01/03 03:02:58;;;;;;;11.83;8.73;;;;;;;2.94;100.00;98333.31;1686691;84;21513;-78
2022/01/03 03:05:27;;;;;;;11.28;8.73;;;;;;;2.97;100.00;98321.70;1692395;84;20976;-79
2022/01/03 03:07:55;;;;;;;10.93;8.23;;;;;;;3.01;100.00;98308.27;1696595;83;21051;-80
2022/01/03 03:10:24;;;;;;;9.33;8.33;;;;;;;3.07;100.00;98319.77;1713584;83;21036;-84
2022/01/03 03:12:52;;;;;;;11.00;9.80;;;;;;;3.12;100.00;98309.80;1727357;83;20975;-84
2022/01/03 03:15:19;;;;;;;11.97;8.98;;;;;;;3.14;100.00;98323.11;1721701;83;21109;-80
2022/01/03 03:17:50;;;;;;;12.33;8.73;;;;;;;3.17;100.00;98309.87;1726721;83;20991;-79
2022/01/03 03:20:26;;;;;;;14.00;9.23;;;;;;;3.19;100.00;98313.92;1721062;83;20967;-79
2022/01/03 03:22:55;;;;;;;15.55;9.68;;;;;;;3.22;100.00;98332.03;1705641;83;21235;-81
2022/01/03 03:25:26;;;;;;;11.40;8.55;;;;;;;3.26;100.00;98340.36;1698794;83;21546;-84
2022/01/03 03:27:56;;;;;;;13.62;9.98;;;;;;;3.32;100.00;98332.75;1718650;83;21107;-78
2022/01/03 03:30:44;;;;;;;13.88;10.23;;;;;;;3.35;100.00;98316.35;1723791;83;27727;-78
2022/01/03 03:33:17;;;;;;;11.08;7.70;;;;;;;3.39;100.00;98336.09;1711676;82;21043;-77
2022/01/03 03:35:46;;;;;;;9.90;7.53;;;;;;;3.43;100.00;98342.54;1689452;84;21060;-77
2022/01/03 03:38:14;;;;;;;12.00;8.98;;;;;;;3.46;100.00;98351.36;1690254;83;21019;-79
2022/01/03 03:40:45;;;;;;;10.13;8.93;;;;;;;3.49;100.00;98355.70;1691005;84;21281;-79
2022/01/03 03:43:09;;;;;;;11.10;8.93;;;;;;;3.51;100.00;98356.77;1689346;84;21039;-76
2022/01/03 03:45:36;;;;;;;9.95;8.18;;;;;;;3.55;100.00;98344.61;1668739;85;21040;-83
2022/01/03 03:48:05;;;;;;;10.38;7.00;;;;;;;3.58;100.00;98338.03;1690259;84;21031;-82
2022/01/03 03:50:33;;;;;;;11.83;9.10;;;;;;;3.62;100.00;98327.20;1678503;84;21049;-79
2022/01/03 03:53:03;;;;;;;11.80;8.60;;;;;;;3.66;100.00;98324.35;1690253;83;20962;-80
2022/01/03 03:55:31;;;;;;;10.05;7.55;;;;;;;3.70;100.00;98320.16;1717561;83;20906;-77
2022/01/03 03:57:59;;;;;;;10.80;8.45;;;;;;;3.75;100.00;98302.97;1697632;83;20982;-84
2022/01/03 04:00:26;;;;;;;10.18;8.38;;;;;;;3.79;100.00;98306.79;1718323;82;21061;-87
2022/01/03 04:02:54;;;;;;;11.33;7.95;;;;;;;3.84;100.00;98298.88;1724738;82;21000;-83
2022/01/03 04:05:21;;;;;;;11.78;8.65;;;;;;;3.86;100.00;98292.28;1720545;83;21790;-81
2022/01/03 04:07:48;;;;;;;11.75;9.05;;;;;;;3.88;100.00;98286.73;1724423;83;21011;-79
2022/01/03 04:10:15;;;;;;;10.18;8.08;;;;;;;3.90;100.00;98283.29;1695427;83;21015;-76
2022/01/03 04:12:44;;;;;;;10.23;8.40;;;;;;;3.93;100.00;98276.18;1720254;83;20996;-82
2022/01/03 04:15:11;;;;;;;9.75;8.18;;;;;;;3.98;100.00;98266.14;1745304;82;21039;-84
2022/01/03 04:17:39;;;;;;;12.30;8.55;;;;;;;4.01;100.00;98263.80;1682218;83;21146;-83
2022/01/03 04:20:07;;;;;;;12.90;8.90;;;;;;;4.06;100.00;98249.77;1713381;83;21029;-83
2022/01/03 04:22:34;;;;;;;13.83;8.65;;;;;;;4.08;100.00;98246.33;1661263;84;21006;-86
2022/01/03 04:25:00;;;;;;;10.85;8.63;;;;;;;4.11;100.00;98244.01;1676558;83;21029;-80
2022/01/03 04:27:27;;;;;;;10.65;7.87;;;;;;;4.19;100.00;98242.77;1689742;83;21069;-80
2022/01/03 04:29:54;;;;;;;9.35;7.95;;;;;;;4.23;100.00;98240.71;1696520;83;21133;-79
2022/01/03 04:32:20;;;;;;;9.85;7.05;;;;;;;4.28;100.00;98225.34;1719069;82;21575;-81
2022/01/03 04:34:47;;;;;;;8.10;7.25;;;;;;;4.31;100.00;98234.99;1698032;83;21561;-85
2022/01/03 04:37:14;;;;;;;12.18;7.95;;;;;;;4.31;100.00;98215.56;1709050;83;21390;-83
2022/01/03 04:39:42;;;;;;;10.98;7.97;;;;;;;4.35;100.00;98200.18;1707317;83;21085;-82
2022/01/03 04:42:08;;;;;;;10.20;7.90;;;;;;;4.35;100.00;98200.18;1648073;85;21066;-85
2022/01/03 04:44:35;;;;;;;11.78;8.13;;;;;;;4.41;100.00;98176.30;1661490;85;21089;-76
2022/01/03 04:47:03;;;;;;;9.23;7.22;;;;;;;4.47;100.00;98184.60;1642785;85;21061;-75
2022/01/03 04:49:29;;;;;;;9.33;7.22;;;;;;;4.54;100.00;98177.25;1718470;83;21056;-74
2022/01/03 04:51:57;;;;;;;8.25;6.55;;;;;;;4.54;100.00;98177.25;1719152;83;21032;-73
2022/01/03 04:54:24;;;;;;;8.58;7.70;;;;;;;4.64;100.00;98190.69;1719041;83;21200;-75
2022/01/03 04:56:51;;;;;;;8.93;7.75;;;;;;;4.64;100.00;98190.69;1681073;83;20999;-74
2022/01/03 04:59:18;;;;;;;8.90;7.05;;;;;;;4.74;100.00;98161.00;1739123;81;21026;-74
2022/01/03 05:01:44;;;;;;;9.75;7.47;;;;;;;4.74;100.00;98161.00;1720004;83;21597;-75
2022/01/03 05:04:11;;;;;;;10.18;7.40;;;;;;;4.78;100.00;98162.63;1720016;83;21598;-77
2022/01/03 05:06:37;;;;;;;8.63;6.65;;;;;;;4.81;100.00;98156.27;1720350;83;21980;-72
2022/01/03 05:09:05;;;;;;;7.00;6.05;;;;;;;4.85;100.00;98151.23;1706318;83;21040;-87
2022/01/03 05:11:31;;;;;;;9.93;7.78;;;;;;;4.98;100.00;98144.72;1724596;82;21004;-80
2022/01/03 05:13:58;;;;;;;9.25;7.00;;;;;;;4.98;100.00;98144.72;1714049;83;21035;-79
2022/01/03 05:16:24;;;;;;;10.88;9.05;;;;;;;5.00;100.00;98158.58;1698433;82;21047;-77
2022/01/03 05:18:50;;;;;;;11.55;8.15;;;;;;;5.02;100.00;98133.84;1699538;83;22139;-76
2022/01/03 05:21:19;;;;;;;9.60;8.30;;;;;;;5.02;100.00;98153.29;1683569;84;20932;-80
2022/01/03 05:23:46;;;;;;;13.28;7.90;;;;;;;5.08;100.00;98138.16;1720480;83;21013;-82
2022/01/03 05:26:14;;;;;;;8.23;7.28;;;;;;;5.09;100.00;98168.53;1720896;83;21036;-84
2022/01/03 05:28:41;;;;;;;13.50;7.78;;;;;;;5.15;100.00;98136.08;1720624;83;21248;-82
2022/01/03 05:31:09;;;;;;;9.45;8.00;;;;;;;5.15;100.00;98164.87;1696391;83;21145;-84
2022/01/03 05:33:37;;;;;;;11.12;7.45;;;;;;;5.19;100.00;98145.17;1695867;83;21032;-83
2022/01/03 05:36:04;;;;;;;9.33;7.75;;;;;;;5.22;100.00;98151.35;1697657;83;21512;-79
2022/01/03 05:38:32;;;;;;;8.73;7.78;;;;;;;5.23;100.00;98172.92;1697418;83;20994;-84
2022/01/03 05:40:59;;;;;;;9.10;7.45;;;;;;;5.26;100.00;98159.92;1713796;83;21627;-85
2022/01/03 05:43:26;;;;;;;14.18;8.63;;;;;;;5.30;100.00;98162.06;1713904;83;21817;-85
2022/01/03 05:45:52;;;;;;;8.43;7.33;;;;;;;5.29;100.00;98141.27;1720267;83;20985;-84
2022/01/03 05:48:19;;;;;;;9.80;8.45;;;;;;;5.31;100.00;98141.83;1723732;82;21016;-78
2022/01/03 05:50:46;;;;;;;8.68;7.25;;;;;;;5.36;100.00;98151.20;1686431;84;21053;-83
2022/01/03 05:53:16;;;;;;;13.28;9.15;;;;;;;5.37;100.00;98139.46;1718422;83;21573;-86
2022/01/03 05:55:44;;;;;;;9.05;7.70;;;;;;;5.39;100.00;98156.02;1720190;83;21150;-82
2022/01/03 05:58:11;;;;;;;16.02;8.33;;;;;;;5.40;100.00;98148.30;1720744;83;20995;-81
2022/01/03 06:00:38;;;;;;;8.60;7.42;;;;;;;5.42;100.00;98168.83;1720577;83;21004;-86
2022/01/03 06:03:04;;;;;;;8.70;7.28;;;;;;;5.48;100.00;98139.02;1720825;83;20992;-83
2022/01/03 06:08:04;;;;;;;9.40;7.53;;;;;;;5.58;100.00;98140.44;1726744;83;21157;-84
2022/01/03 06:10:35;;;;;;;10.65;7.80;;;;;;;5.58;100.00;98129.24;1722461;83;21051;-85
2022/01/03 06:13:02;;;;;;;8.25;5.87;;;;;;;5.60;100.00;98136.47;1674430;84;21036;-84
2022/01/03 06:15:30;;;;;;;12.18;8.18;;;;;;;5.60;100.00;98131.66;1690807;84;20956;-87
2022/01/03 06:17:56;;;;;;;12.75;9.10;;;;;;;5.63;100.00;98133.28;1722099;83;21150;-85
2022/01/03 06:20:25;;;;;;;8.95;8.00;;;;;;;5.66;100.00;98135.95;1695435;83;22050;-84
2022/01/03 06:22:53;;;;;;;11.65;8.88;;;;;;;5.66;100.00;98136.77;1720465;83;20912;-85
2022/01/03 06:25:19;;;;;;;7.95;6.92;;;;;;;5.68;100.00;98135.18;1726506;82;21013;-85
2022/01/03 06:27:47;;;;;;;12.90;8.93;;;;;;;5.69;100.00;98136.80;1720499;83;21557;-85
2022/01/03 06:30:14;;;;;;;8.68;7.75;;;;;;;5.71;100.00;98154.66;1696660;83;21041;-83
2022/01/03 06:32:42;;;;;;;10.53;7.85;;;;;;;5.74;100.00;98154.17;1722178;82;21578;-84
2022/01/03 06:35:08;;;;;;;10.25;7.90;;;;;;;5.76;100.00;98140.03;1692106;83;21054;-86
2022/01/03 06:37:37;;;;;;;9.83;6.85;;;;;;;5.79;100.00;98130.20;1722915;83;21061;-83
2022/01/03 06:40:07;;;;;;;8.65;7.50;;;;;;;5.82;100.00;98123.53;1721499;83;21002;-83
2022/01/03 06:42:34;;;;;;;11.12;7.78;;;;;;;5.87;100.00;98122.26;1721090;83;21038;-85
2022/01/03 06:45:02;;;;;;;9.75;8.60;;;;;;;5.90;100.00;98113.20;1721125;83;21180;-82
2022/01/03 06:47:31;;;;;;;18.10;10.45;;;;;;;5.93;100.00;98118.05;1698619;83;21039;-89
2022/01/03 06:49:57;;;;;;;11.25;7.97;;;;;;;5.97;100.00;98115.12;1726855;81;21044;-85
2022/01/03 06:52:24;;;;;;;12.43;8.48;;;;;;;6.00;100.00;98131.13;1705515;83;21015;-83
2022/01/03 06:54:50;;;;;;;8.95;7.50;;;;;;;6.02;100.00;98115.16;1710176;83;21027;-83
2022/01/03 06:57:17;;;;;;;9.00;7.65;;;;;;;6.09;100.00;98120.27;1726750;83;21008;-79
2022/01/03 06:59:45;;;;;;;9.53;7.78;;;;;;;6.12;100.00;98117.87;1720619;83;21010;-79
2022/01/03 07:02:12;;;;;;;13.43;8.75;;;;;;;6.16;100.00;98113.34;1726588;82;21040;-81
2022/01/03 07:04:38;;;;;;;9.48;7.45;;;;;;;6.18;100.00;98116.57;1720557;83;21566;-83
2022/01/03 07:07:05;;;;;;;12.58;8.43;;;;;;;6.19;100.00;98118.96;1720384;83;21071;-82
2022/01/03 07:09:32;;;;;;;9.95;7.97;;;;;;;6.20;100.00;98124.58;1719484;83;21109;-85
2022/01/03 07:11:59;;;;;;;9.83;6.95;;;;;;;6.24;100.00;98114.98;1726625;83;21051;-79
2022/01/03 07:19:40;;;;;;;9.73;8.13;;;;;;;6.35;99.65;98094.47;1711993;83;21487;-84
2022/01/03 07:22:08;;;;;;;14.07;9.13;;;;;;;6.38;99.53;98110.77;1719211;83;21025;-78
2022/01/03 07:24:36;;;;;;;12.28;8.95;;;;;;;6.40;99.40;98105.17;1695246;83;21016;-83
2022/01/03 07:27:04;;;;;;;11.28;8.85;;;;;;;6.42;99.31;98093.72;1721042;83;21550;-80
2022/01/03 07:29:30;;;;;;;11.55;8.05;;;;;;;6.44;99.06;98091.04;1722089;83;21042;-77
2022/01/03 07:31:57;;;;;;;11.88;8.58;;;;;;;6.44;98.92;98071.55;1702433;83;21070;-81
2022/01/03 07:34:24;;;;;;;10.58;8.28;;;;;;;6.45;98.92;98069.15;1722615;83;21501;-80
2022/01/03 07:36:50;;;;;;;9.73;7.55;;;;;;;6.44;98.89;98070.20;1719746;83;20985;-78
2022/01/03 07:39:17;;;;;;;15.00;9.73;;;;;;;6.46;98.94;98078.23;1722367;83;21077;-78
2022/01/03 07:41:43;;;;;;;10.72;8.78;;;;;;;6.49;98.96;98067.02;1728969;81;21124;-79
2022/01/03 07:44:09;;;;;;;9.73;7.67;;;;;;;6.52;98.93;98073.16;1710108;83;21331;-79
2022/01/03 07:46:37;;;;;;;11.28;8.68;;;;;;;6.54;98.87;98063.03;1725806;82;22121;-78
2022/01/03 07:49:03;;;;;;;9.40;7.72;;;;;;;6.54;98.75;98069.70;1726254;83;21016;-78
2022/01/03 07:51:30;;;;;;;9.10;7.92;;;;;;;6.56;98.77;98063.59;1722351;83;21138;-81
2022/01/03 07:53:58;;;;;;;10.15;7.62;;;;;;;6.62;98.79;98048.91;1721225;83;21071;-78
2022/01/03 07:56:25;;;;;;;9.70;8.63;;;;;;;6.67;98.74;98048.89;1725307;82;21127;-79
2022/01/03 07:58:51;;;;;;;10.03;7.92;;;;;;;6.70;98.47;98038.50;1725212;82;21883;-77
2022/01/03 08:01:18;;;;;;;9.83;8.63;;;;;;;6.75;98.35;98048.39;1720908;83;21628;-80
2022/01/03 08:03:44;;;;;;;12.35;8.33;;;;;;;6.79;98.18;98034.77;1725146;83;20999;-84
2022/01/03 08:06:11;;;;;;;9.18;7.85;;;;;;;6.81;97.88;98030.74;1721017;83;21199;-85
2022/01/03 08:08:37;;;;;;;12.78;8.33;;;;;;;6.84;97.57;98032.09;1702265;83;21060;-81
2022/01/03 08:11:04;;;;;;;10.43;8.90;;;;;;;6.87;97.45;98039.04;1720789;83;21148;-81
2022/01/03 08:13:31;;;;;;;10.30;7.22;;;;;;;6.89;97.19;98052.14;1720971;83;21080;-84
2022/01/03 08:15:58;;;;;;;10.80;8.63;;;;;;;6.87;96.98;98025.68;1717691;83;21517;-83
2022/01/03 08:18:25;;;;;;;11.55;8.75;;;;;;;6.87;96.97;98024.34;1715950;83;21521;-82
2022/01/03 08:20:53;;;;;;;11.18;7.92;;;;;;;6.87;97.01;98032.36;1721524;83;21548;-83
2022/01/03 08:23:20;;;;;;;11.93;9.65;;;;;;;6.88;96.98;98023.28;1716492;83;21021;-80
2022/01/03 08:25:46;;;;;;;9.60;7.22;;;;;;;6.87;96.79;98025.68;1725142;82;21026;-84
2022/01/03 08:28:12;;;;;;;12.93;7.87;;;;;;;6.90;96.72;98030.52;1725549;83;21040;-85
2022/01/03 08:30:39;;;;;;;12.98;8.20;;;;;;;6.94;96.47;98033.45;1726950;81;21013;-79
2022/01/03 08:33:07;;;;;;;13.85;9.20;;;;;;;6.95;96.24;98033.72;1728007;83;21062;-82
2022/01/03 08:35:34;;;;;;;11.20;9.05;;;;;;;6.92;95.91;98037.71;1728184;83;21153;-84
2022/01/03 08:38:04;;;;;;;10.98;8.38;;;;;;;6.93;95.83;98023.81;1723778;83;20858;-86
2022/01/03 08:40:31;;;;;;;11.38;7.45;;;;;;;6.95;95.68;98025.70;1721801;83;21541;-81
2022/01/03 08:42:59;;;;;;;9.03;7.40;;;;;;;6.95;95.35;98049.19;1720930;83;21651;-81
2022/01/03 08:45:26;;;;;;;8.15;6.17;;;;;;;6.97;95.26;98047.59;1720764;83;21061;-81
2022/01/03 08:47:52;;;;;;;15.50;11.10;;;;;;;6.98;95.05;98026.49;1700810;83;21095;-81
2022/01/03 08:50:18;;;;;;;11.70;8.83;;;;;;;7.01;94.93;98008.05;1724965;83;22874;-79
2022/01/03 08:52:47;;;;;;;11.43;8.78;;;;;;;7.04;94.70;98025.43;1682070;84;21079;-83
2022/01/03 08:55:14;;;;;;;16.95;8.18;;;;;;;7.09;94.58;98024.09;1693398;84;21093;-82
2022/01/03 08:57:41;;;;;;;11.45;7.83;;;;;;;7.12;94.22;98018.73;1725482;83;21520;-81
2022/01/03 09:00:09;;;;;;;9.65;7.25;;;;;;;7.15;94.00;98007.50;1725959;83;21516;-82
2022/01/03 09:02:37;;;;;;;9.43;7.78;;;;;;;7.18;93.84;97992.27;1721251;81;21039;-90
2022/01/03 09:05:04;;;;;;;8.30;7.28;;;;;;;7.23;93.81;97989.06;1734223;81;21062;-88
2022/01/03 09:07:30;;;;;;;9.08;7.12;;;;;;;7.27;93.42;97995.47;1739155;81;21088;-83
2022/01/03 09:09:57;;;;;;;9.28;8.08;;;;;;;7.31;93.19;97985.83;1710818;83;21110;-86
2022/01/03 09:12:24;;;;;;;10.95;7.42;;;;;;;7.36;93.08;97986.36;1721094;83;21508;-86
2022/01/03 09:14:53;;;;;;;13.28;8.03;;;;;;;7.40;92.88;98003.45;1680305;84;21054;-90
2022/01/03 09:17:19;;;;;;;8.63;7.70;;;;;;;7.43;92.59;97989.56;1716667;83;21048;-85
2022/01/03 09:19:48;;;;;;;10.28;8.18;;;;;;;7.48;92.46;97977.52;1720443;83;20941;-86
2022/01/03 09:22:19;;;;;;;8.80;7.28;;;;;;;7.51;92.30;97972.95;1703728;83;21080;-84
2022/01/03 09:24:47;;;;;;;8.70;6.42;;;;;;;7.54;92.18;97971.06;1771810;80;21033;-87
2022/01/03 09:30:04;;;;;;;9.33;7.40;;;;;;;7.61;91.68;97944.84;1781480;79;20951;-86
2022/01/03 09:32:34;;;;;;;14.47;7.22;;;;;;;7.64;91.38;97944.28;1766848;80;31987;-85
2022/01/03 09:35:01;;;;;;;9.48;7.37;;;;;;;7.68;91.29;97927.13;1768615;80;21066;-86
2022/01/03 09:37:34;;;;;;;11.90;8.63;;;;;;;7.69;90.97;97942.92;1704292;82;21026;-84
2022/01/03 09:40:05;;;;;;;9.75;6.90;;;;;;;7.72;90.80;97941.59;1694104;83;21016;-85
2022/01/03 09:42:31;;;;;;;10.72;7.92;;;;;;;7.72;90.64;97925.54;1690487;83;21024;-81
2022/01/03 09:45:08;;;;;;;7.87;7.12;;;;;;;7.78;90.62;97924.42;1693117;83;21072;-81
2022/01/03 09:47:39;;;;;;;10.60;7.17;;;;;;;7.80;90.32;97943.16;1686600;85;21104;-78
2022/01/03 09:50:10;;;;;;;9.70;6.70;;;;;;;7.81;90.12;97944.77;1664997;85;20970;-78
2022/01/03 09:52:39;;;;;;;9.03;6.87;;;;;;;7.83;89.93;97903.80;1715933;83;20927;-80
2022/01/03 09:55:06;;;;;;;10.03;7.40;;;;;;;7.88;89.75;97899.75;1720966;83;21071;-81
2022/01/03 09:57:34;;;;;;;10.88;7.67;;;;;;;7.91;89.57;97909.66;1726405;82;20972;-81
2022/01/03 10:00:05;;;;;;;11.10;6.40;;;;;;;7.97;89.39;97894.61;1720493;83;21994;-81
2022/01/03 10:02:35;;;;;;;10.90;7.22;;;;;;;8.03;89.31;97905.56;1726480;82;21120;-80
2022/01/03 10:05:05;;;;;;;11.78;7.83;;;;;;;8.06;88.82;97891.61;1720211;83;21753;-83
2022/01/03 10:07:34;;;;;;;8.85;6.87;;;;;;;8.11;88.86;97895.59;1714326;83;21091;-81
2022/01/03 10:10:10;;;;;;;12.63;7.20;;;;;;;8.18;88.81;97881.38;1704976;83;21083;-82
2022/01/03 10:12:39;;;;;;;12.33;8.53;;;;;;;8.26;88.57;97899.52;1725738;83;21057;-82
2022/01/03 10:15:10;;;;;;;8.53;7.22;;;;;;;8.30;87.86;97880.50;1712552;83;21109;-81
2022/01/03 10:17:41;;;;;;;9.98;6.45;;;;;;;8.33;87.52;97880.49;1707742;83;21603;-82
2022/01/03 10:20:13;;;;;;;9.30;6.42;;;;;;;8.36;87.16;97886.62;1727033;83;21131;-83
2022/01/03 10:22:48;;;;;;;9.83;6.15;;;;;;;8.41;87.12;97869.17;1702868;82;21090;-84
2022/01/03 10:25:26;;;;;;;9.18;6.78;;;;;;;8.44;86.51;97883.34;1717238;83;20948;-82
2022/01/03 10:28:00;;;;;;;9.48;6.83;;;;;;;8.50;86.50;97881.42;1715468;83;21017;-86
2022/01/03 10:30:42;;;;;;;14.98;8.48;;;;;;;8.52;85.93;97867.22;1716584;83;21333;-82
2022/01/03 10:33:15;;;;;;;13.18;7.37;;;;;;;8.54;85.78;97877.09;1704431;83;21028;-87
2022/01/03 10:35:56;;;;;;;9.40;7.47;;;;;;;8.53;85.58;97879.00;1715305;83;21085;-82
2022/01/03 10:38:44;;;;;;;9.38;7.08;;;;;;;8.54;85.70;97854.32;1719758;82;21076;-82
2022/01/03 10:41:14;;;;;;;9.00;6.65;;;;;;;8.56;85.77;97855.66;1723253;83;21063;-83
2022/01/03 10:43:46;;;;;;;7.97;7.17;;;;;;;8.57;85.54;97860.48;1724384;82;20971;-83
2022/01/03 10:46:27;;;;;;;8.28;6.40;;;;;;;8.56;85.50;97854.85;1717521;83;21022;-83
2022/01/03 10:49:28;;;;;;;10.32;7.15;;;;;;;8.54;85.53;97852.45;1690431;83;21012;-81
2022/01/03 10:52:29;;;;;;;7.90;5.90;;;;;;;8.54;85.68;97837.71;1725309;83;21644;-81
2022/01/03 10:55:38;;;;;;;10.85;6.37;;;;;;;8.57;85.65;97837.70;1719641;83;21010;-87
2022/01/03 10:58:07;;;;;;;10.58;7.20;;;;;;;8.60;85.49;97837.13;1692210;84;21038;-82
2022/01/03 11:00:41;;;;;;;9.70;7.42;;;;;;;8.60;85.40;97839.81;1699280;83;21651;-79
2022/01/03 11:05:52;;;;;;;10.13;7.05;;;;;;;8.61;85.23;97866.33;1717972;83;20952;-80
2022/01/03 11:11:08;;;;;;;10.35;6.95;;;;;;;8.67;85.11;97837.08;1755092;81;21068;-84
2022/01/03 11:13:47;;;;;;;10.65;6.17;;;;;;;8.68;84.87;97829.84;1763383;80;20917;-82
2022/01/03 11:16:18;;;;;;;7.42;5.80;;;;;;;8.66;84.98;97827.43;1771199;81;21142;-83
2022/01/03 11:18:49;;;;;;;8.53;5.92;;;;;;;8.66;84.95;97826.09;1756357;80;20928;-88
2022/01/03 11:21:24;;;;;;;7.28;5.30;;;;;;;8.67;84.85;97830.91;1744721;82;21136;-83
2022/01/03 11:24:08;;;;;;;10.55;6.50;;;;;;;8.69;84.84;97824.17;1743334;81;21507;-85
2022/01/03 11:26:46;;;;;;;8.05;6.00;;;;;;;8.71;84.82;97827.92;1741784;80;21014;-83
2022/01/03 11:29:09;;;;;;;10.18;6.20;;;;;;;8.71;84.63;97823.91;1763294;79;21056;-79
2022/01/03 11:31:40;;;;;;;5.90;5.28;;;;;;;8.70;84.46;97805.68;1750288;80;21107;-83
2022/01/03 11:34:11;;;;;;;8.75;6.22;;;;;;;8.72;84.26;97802.73;1766998;80;21130;-88
2022/01/03 11:36:39;;;;;;;8.88;5.45;;;;;;;8.75;84.11;97815.55;1727069;83;21547;-90
2022/01/03 11:39:11;;;;;;;6.75;6.05;;;;;;;8.79;83.72;97813.89;1751299;80;21071;-90
2022/01/03 11:41:44;;;;;;;10.60;5.22;;;;;;;8.83;83.53;97816.26;1776394;80;21094;-86
2022/01/03 11:44:15;;;;;;;8.70;5.10;;;;;;;8.84;83.25;97808.48;1776070;80;21004;-86
2022/01/03 11:46:45;;;;;;;8.25;5.37;;;;;;;8.85;83.24;97803.39;1726752;82;21031;-84
2022/01/03 11:49:13;;;;;;;6.75;4.97;;;;;;;8.85;83.38;97805.27;1720024;83;21520;-82
2022/01/03 11:51:41;;;;;;;10.08;5.83;;;;;;;8.85;83.59;97803.39;1684727;84;21059;-79
2022/01/03 11:54:14;;;;;;;6.80;5.22;;;;;;;8.87;83.61;97807.94;1684999;83;21064;-83
2022/01/03 11:56:45;;;;;;;7.60;4.47;;;;;;;8.85;83.48;97820.00;1726434;83;20948;-84
2022/01/03 12:04:39;;;;;;;8.40;5.42;;;;;;;8.83;83.52;97803.39;1726773;83;21107;-81
2022/01/03 12:07:12;;;;;;;9.50;6.08;;;;;;;8.86;83.13;97800.16;1726397;82;21019;-80
2022/01/03 12:09:54;;;;;;;;;;;;;;;8.87;82.79;97816.52;1722914;83;20948;-81